Time;durP1;ratioP1;P1;durP2;ratioP2;P2;SDS_P1;SDS_P2;PMS_P1;PMS_P2;Temp;Humidity;BMP_temperature;BMP_pressure;BME280_temperature;BME280_humidity;BME280_pressure;Samples;Min_cycle;Max_cycle;Signal;HPM_P1;HPM_P2
2021/12/06 00:01:58;;;;;;;;;;;23.90;46.00;;;;;;1555384;74;753;-58
2021/12/06 00:04:05;;;;;;;;;;;23.90;46.00;;;;;;1555015;74;1929;-60
2021/12/06 00:06:07;;;;;;;;;;;23.90;46.00;;;;;;1557356;74;1187;-58
2021/12/06 00:08:09;;;;;;;;;;;24.00;46.00;;;;;;1550323;74;708;-57
2021/12/06 00:10:11;;;;;;;;;;;23.90;46.00;;;;;;1552975;74;803;-59
2021/12/06 00:12:13;;;;;;;;;;;23.90;46.00;;;;;;1549711;74;1552;-59
2021/12/06 00:14:15;;;;;;;;;;;23.90;45.90;;;;;;1547686;74;754;-57
2021/12/06 00:16:20;;;;;;;;;;;24.00;45.90;;;;;;1556706;74;1120;-57
2021/12/06 00:18:21;;;;;;;;;;;24.00;45.90;;;;;;1550093;74;1639;-58
2021/12/06 00:20:22;;;;;;;;;;;23.90;45.80;;;;;;1554054;74;765;-57
2021/12/06 00:22:24;;;;;;;;;;;23.90;45.80;;;;;;1547717;74;695;-58
2021/12/06 00:24:26;;;;;;;;;;;24.00;45.90;;;;;;1550883;74;1943;-58
2021/12/06 00:26:28;;;;;;;;;;;23.90;45.80;;;;;;1550090;74;1231;-58
2021/12/06 00:28:30;;;;;;;;;;;23.90;45.70;;;;;;1556214;74;702;-58
2021/12/06 00:30:32;;;;;;;;;;;23.90;45.70;;;;;;1557906;74;707;-59
2021/12/06 00:32:34;;;;;;;;;;;24.00;45.80;;;;;;1552671;74;719;-59
2021/12/06 00:34:37;;;;;;;;;;;23.90;45.80;;;;;;1559549;74;796;-59
2021/12/06 00:36:40;;;;;;;;;;;24.00;45.90;;;;;;1555736;74;1164;-57
2021/12/06 00:38:43;;;;;;;;;;;23.90;45.80;;;;;;1552668;74;737;-57
2021/12/06 00:40:46;;;;;;;;;;;24.00;45.80;;;;;;1553147;74;719;-57
2021/12/06 00:42:48;;;;;;;;;;;24.00;45.80;;;;;;1561830;74;806;-60
2021/12/06 00:44:50;;;;;;;;;;;24.00;45.80;;;;;;1561285;74;1959;-58
2021/12/06 00:46:52;;;;;;;;;;;23.90;45.80;;;;;;1554605;74;1162;-58
2021/12/06 00:48:54;;;;;;;;;;;24.00;45.90;;;;;;1555707;74;778;-58
2021/12/06 00:50:56;;;;;;;;;;;23.90;45.90;;;;;;1555295;74;632;-59
2021/12/06 00:52:58;;;;;;;;;;;23.90;45.90;;;;;;1553829;74;675;-59
2021/12/06 00:55:00;;;;;;;;;;;23.90;45.90;;;;;;1562757;74;720;-59
2021/12/06 00:57:08;;;;;;;;;;;24.00;45.90;;;;;;1570709;74;1157;-59
2021/12/06 00:59:10;;;;;;;;;;;23.90;46.00;;;;;;1562042;74;569;-60
2021/12/06 01:01:12;;;;;;;;;;;23.90;46.00;;;;;;1556308;74;701;-59
2021/12/06 01:03:15;;;;;;;;;;;24.00;46.00;;;;;;1565282;74;1930;-60
2021/12/06 01:05:17;;;;;;;;;;;23.90;46.10;;;;;;1557366;74;2001;-60
2021/12/06 01:07:19;;;;;;;;;;;24.00;46.00;;;;;;1572765;74;1177;-59
2021/12/06 01:09:21;;;;;;;;;;;23.90;46.00;;;;;;1565075;74;658;-59
2021/12/06 01:11:23;;;;;;;;;;;23.90;46.00;;;;;;1574663;74;775;-60
2021/12/06 01:13:25;;;;;;;;;;;23.90;45.90;;;;;;1569855;74;786;-59
2021/12/06 01:15:26;;;;;;;;;;;24.00;46.00;;;;;;1565542;74;760;-60
2021/12/06 01:17:28;;;;;;;;;;;23.90;46.00;;;;;;1570178;74;1161;-58
2021/12/06 01:19:30;;;;;;;;;;;23.90;46.00;;;;;;1564757;74;791;-57
2021/12/06 01:21:46;;;;;;;;;;;23.90;46.00;;;;;;1560133;74;697;-59
2021/12/06 01:23:56;;;;;;;;;;;23.90;46.00;;;;;;1575209;74;1923;-59
2021/12/06 01:26:13;;;;;;;;;;;23.90;46.00;;;;;;1566408;74;1712;-59
2021/12/06 01:30:22;;;;;;;;;;;23.90;46.00;;;;;;1571022;74;863;-60
2021/12/06 01:32:48;;;;;;;;;;;24.00;46.00;;;;;;1567124;74;1680;-58
2021/12/06 01:39:17;;;;;;;;;;;23.90;46.00;;;;;;1580447;74;1609;-58
2021/12/06 01:41:19;;;;;;;;;;;23.90;46.10;;;;;;1558236;74;1604;-59
2021/12/06 01:43:20;;;;;;;;;;;23.90;46.10;;;;;;1570258;74;1914;-58
2021/12/06 01:45:22;;;;;;;;;;;23.90;46.10;;;;;;1562015;74;727;-59
2021/12/06 01:47:29;;;;;;;;;;;23.90;46.10;;;;;;1575211;74;1114;-58
2021/12/06 01:49:32;;;;;;;;;;;23.90;46.00;;;;;;1571074;74;770;-57
2021/12/06 01:51:34;;;;;;;;;;;23.90;46.00;;;;;;1566418;74;755;-60
2021/12/06 01:53:36;;;;;;;;;;;23.90;46.00;;;;;;1565719;74;699;-57
2021/12/06 01:55:38;;;;;;;;;;;23.90;46.00;;;;;;1568633;74;718;-58
2021/12/06 01:57:40;;;;;;;;;;;23.90;46.00;;;;;;1571236;74;1114;-58
2021/12/06 01:59:42;;;;;;;;;;;23.90;46.00;;;;;;1571287;74;807;-58
2021/12/06 02:01:44;;;;;;;;;;;24.00;46.00;;;;;;1569483;74;701;-58
2021/12/06 02:03:46;;;;;;;;;;;24.00;46.00;;;;;;1564588;74;1949;-58
2021/12/06 02:05:50;;;;;;;;;;;24.00;46.00;;;;;;1589039;74;627;-58
2021/12/06 02:07:52;;;;;;;;;;;24.00;46.10;;;;;;1575388;74;785;-57
2021/12/06 02:09:56;;;;;;;;;;;23.90;46.00;;;;;;1559298;74;872;-58
2021/12/06 02:12:00;;;;;;;;;;;24.00;46.00;;;;;;1584528;74;1948;-58
2021/12/06 02:14:23;;;;;;;;;;;23.90;46.00;;;;;;1561086;74;684;-57
2021/12/06 02:16:09;;;;;;;;;;;23.90;46.10;;;;;;1565236;74;1691;-58
2021/12/06 02:18:16;;;;;;;;;;;23.90;46.00;;;;;;1562846;74;809;-59
2021/12/06 02:20:23;;;;;;;;;;;23.90;46.00;;;;;;1550882;74;1408;-58
2021/12/06 02:22:20;;;;;;;;;;;24.00;46.00;;;;;;1567819;74;1155;-57
2021/12/06 02:24:22;;;;;;;;;;;23.90;46.00;;;;;;1570102;74;1926;-58
2021/12/06 02:26:24;;;;;;;;;;;24.00;46.00;;;;;;1566658;74;1138;-57
2021/12/06 02:28:26;;;;;;;;;;;23.90;46.00;;;;;;1561418;74;729;-57
2021/12/06 02:30:28;;;;;;;;;;;24.00;45.90;;;;;;1566056;74;691;-57
2021/12/06 02:32:30;;;;;;;;;;;23.90;46.00;;;;;;1570867;74;749;-58
2021/12/06 02:34:32;;;;;;;;;;;23.90;46.00;;;;;;1569851;74;815;-58
2021/12/06 02:36:34;;;;;;;;;;;23.90;46.00;;;;;;1587368;74;1183;-58
2021/12/06 02:38:36;;;;;;;;;;;23.90;46.00;;;;;;1562473;74;780;-59
2021/12/06 02:40:38;;;;;;;;;;;24.00;46.00;;;;;;1573580;74;702;-58
2021/12/06 02:42:43;;;;;;;;;;;23.90;46.00;;;;;;1571099;74;949;-58
2021/12/06 02:44:44;;;;;;;;;;;23.90;46.00;;;;;;1571030;74;1912;-60
2021/12/06 02:46:46;;;;;;;;;;;24.00;46.00;;;;;;1571134;74;1125;-61
2021/12/06 02:48:48;;;;;;;;;;;23.90;46.00;;;;;;1568533;74;764;-57
2021/12/06 02:50:52;;;;;;;;;;;23.90;46.00;;;;;;1564410;74;977;-59
2021/12/06 02:52:55;;;;;;;;;;;23.90;46.00;;;;;;1559597;74;692;-58
2021/12/06 02:54:58;;;;;;;;;;;23.90;45.90;;;;;;1567092;74;770;-59
2021/12/06 02:59:16;;;;;;;;;;;24.00;45.90;;;;;;1558074;74;665;-59
2021/12/06 03:01:20;;;;;;;;;;;23.90;45.90;;;;;;1563487;74;745;-58
2021/12/06 03:03:22;;;;;;;;;;;23.90;45.90;;;;;;1555690;74;649;-59
2021/12/06 03:05:24;;;;;;;;;;;23.90;45.90;;;;;;1562275;74;1932;-59
2021/12/06 03:07:28;;;;;;;;;;;23.90;45.90;;;;;;1570344;74;1114;-59
2021/12/06 03:09:33;;;;;;;;;;;23.90;46.00;;;;;;1566889;74;754;-59
2021/12/06 03:11:38;;;;;;;;;;;23.90;46.00;;;;;;1558618;74;1593;-59
2021/12/06 03:13:40;;;;;;;;;;;23.90;46.00;;;;;;1563066;74;1562;-59
2021/12/06 03:15:42;;;;;;;;;;;23.90;46.20;;;;;;1561054;74;760;-59
2021/12/06 03:17:45;;;;;;;;;;;23.90;46.10;;;;;;1571104;74;1082;-59
2021/12/06 03:19:47;;;;;;;;;;;23.90;46.10;;;;;;1571131;74;775;-58
2021/12/06 03:21:49;;;;;;;;;;;23.90;46.10;;;;;;1571008;74;719;-57
2021/12/06 03:23:52;;;;;;;;;;;23.90;46.10;;;;;;1570427;74;1945;-58
2021/12/06 03:25:54;;;;;;;;;;;23.90;46.10;;;;;;1569820;74;1118;-59
2021/12/06 03:27:58;;;;;;;;;;;23.90;46.10;;;;;;1567644;74;665;-58
2021/12/06 03:29:59;;;;;;;;;;;23.90;46.00;;;;;;1567532;74;1760;-58
2021/12/06 03:32:01;;;;;;;;;;;23.90;46.00;;;;;;1566344;74;711;-58
2021/12/06 03:34:03;;;;;;;;;;;23.90;46.00;;;;;;1568361;74;732;-59
2021/12/06 03:36:06;;;;;;;;;;;24.00;46.00;;;;;;1569736;74;1066;-57
2021/12/06 03:38:08;;;;;;;;;;;24.00;45.90;;;;;;1571063;74;792;-58
2021/12/06 03:40:10;;;;;;;;;;;23.90;45.90;;;;;;1571234;74;703;-59
2021/12/06 03:42:12;;;;;;;;;;;23.90;45.80;;;;;;1568160;74;741;-59
2021/12/06 03:44:14;;;;;;;;;;;23.90;45.80;;;;;;1564441;74;1946;-59
2021/12/06 03:46:17;;;;;;;;;;;23.90;45.80;;;;;;1571034;74;1118;-60
2021/12/06 03:48:18;;;;;;;;;;;24.00;45.80;;;;;;1571107;74;767;-59
2021/12/06 03:50:20;;;;;;;;;;;24.00;45.70;;;;;;1571136;74;716;-59
2021/12/06 03:52:22;;;;;;;;;;;24.00;45.70;;;;;;1563233;74;714;-59
2021/12/06 03:54:25;;;;;;;;;;;24.00;45.70;;;;;;1563012;74;800;-59
2021/12/06 03:56:27;;;;;;;;;;;24.00;45.70;;;;;;1553860;74;1143;-59
2021/12/06 03:58:29;;;;;;;;;;;24.00;45.70;;;;;;1559130;74;755;-60
2021/12/06 04:00:31;;;;;;;;;;;24.00;45.60;;;;;;1559737;74;746;-59
2021/12/06 04:02:32;;;;;;;;;;;24.00;45.80;;;;;;1552966;74;745;-60
2021/12/06 04:04:35;;;;;;;;;;;23.90;46.00;;;;;;1547381;74;1919;-59
2021/12/06 04:06:37;;;;;;;;;;;23.80;46.30;;;;;;1567230;74;1240;-60
2021/12/06 04:08:39;;;;;;;;;;;23.70;46.60;;;;;;1560276;74;602;-59
2021/12/06 04:10:42;;;;;;;;;;;23.70;46.80;;;;;;1559926;74;690;-58
2021/12/06 04:12:44;;;;;;;;;;;23.60;46.80;;;;;;1557650;74;795;-59
2021/12/06 04:14:47;;;;;;;;;;;23.70;47.30;;;;;;1554408;74;770;-58
2021/12/06 04:16:49;;;;;;;;;;;23.60;47.40;;;;;;1559633;74;1158;-58
2021/12/06 04:18:51;;;;;;;;;;;23.50;47.60;;;;;;1551116;74;732;-59
2021/12/06 04:20:53;;;;;;;;;;;23.60;47.60;;;;;;1527703;76;1249;-57
2021/12/06 04:22:55;;;;;;;;;;;23.50;47.70;;;;;;1546586;74;796;-60
2021/12/06 04:25:00;;;;;;;;;;;23.50;47.80;;;;;;1549301;74;1927;-58
2021/12/06 04:27:11;;;;;;;;;;;23.50;47.90;;;;;;1557976;74;1475;-59
2021/12/06 04:29:04;;;;;;;;;;;23.50;48.00;;;;;;1555333;74;1590;-59
2021/12/06 04:31:06;;;;;;;;;;;23.50;48.10;;;;;;1556512;74;728;-59
2021/12/06 04:33:08;;;;;;;;;;;23.50;48.20;;;;;;1568644;74;719;-59
2021/12/06 04:35:09;;;;;;;;;;;23.50;48.30;;;;;;1571063;74;821;-60
2021/12/06 04:37:11;;;;;;;;;;;23.50;48.30;;;;;;1571022;74;1181;-59
2021/12/06 04:39:14;;;;;;;;;;;23.40;48.20;;;;;;1571103;74;797;-60
2021/12/06 04:41:16;;;;;;;;;;;23.50;48.40;;;;;;1551323;74;781;-58
2021/12/06 04:43:18;;;;;;;;;;;23.50;48.40;;;;;;1570869;74;793;-60
2021/12/06 04:45:20;;;;;;;;;;;23.50;48.40;;;;;;1571007;74;1908;-59
2021/12/06 04:47:22;;;;;;;;;;;23.50;48.00;;;;;;1571032;74;1130;-60
2021/12/06 04:49:26;;;;;;;;;;;23.50;48.10;;;;;;1567784;74;718;-59
2021/12/06 04:51:27;;;;;;;;;;;23.60;47.80;;;;;;1569892;74;1620;-58
2021/12/06 04:53:36;;;;;;;;;;;23.80;47.30;;;;;;1557575;74;783;-58
2021/12/06 04:55:34;;;;;;;;;;;24.00;46.80;;;;;;1564188;74;1419;-59
2021/12/06 04:57:40;;;;;;;;;;;24.20;46.40;;;;;;1567719;74;1125;-59
2021/12/06 04:59:44;;;;;;;;;;;24.20;46.00;;;;;;1570733;74;749;-59
2021/12/06 05:01:46;;;;;;;;;;;24.20;45.80;;;;;;1563155;74;731;-57
2021/12/06 05:03:48;;;;;;;;;;;24.30;45.70;;;;;;1560071;74;727;-59
2021/12/06 05:05:51;;;;;;;;;;;24.30;45.50;;;;;;1570699;74;1932;-58
2021/12/06 05:07:55;;;;;;;;;;;24.30;45.40;;;;;;1564689;74;729;-58
2021/12/06 05:09:57;;;;;;;;;;;24.30;45.40;;;;;;1561725;74;1718;-58
2021/12/06 05:11:59;;;;;;;;;;;24.30;45.40;;;;;;1572276;74;718;-58
2021/12/06 05:14:02;;;;;;;;;;;24.40;45.30;;;;;;1570019;74;772;-59
2021/12/06 05:16:04;;;;;;;;;;;24.40;45.30;;;;;;1562578;74;1086;-58
2021/12/06 05:18:05;;;;;;;;;;;24.40;45.20;;;;;;1555923;74;826;-58
2021/12/06 05:20:08;;;;;;;;;;;24.30;45.30;;;;;;1561188;74;756;-58
2021/12/06 05:22:10;;;;;;;;;;;24.30;45.30;;;;;;1550446;74;817;-57
2021/12/06 05:24:12;;;;;;;;;;;24.30;45.30;;;;;;1558914;74;734;-58
2021/12/06 05:26:13;;;;;;;;;;;24.30;45.30;;;;;;1555868;74;1934;-59
2021/12/06 05:28:17;;;;;;;;;;;24.30;45.20;;;;;;1550528;74;800;-59
2021/12/06 05:30:21;;;;;;;;;;;24.30;45.20;;;;;;1564483;74;735;-59
2021/12/06 05:32:25;;;;;;;;;;;24.30;45.20;;;;;;1547320;74;1549;-58
2021/12/06 05:34:32;;;;;;;;;;;24.40;45.20;;;;;;1552228;74;1661;-59
2021/12/06 05:36:30;;;;;;;;;;;24.30;45.20;;;;;;1554091;74;1684;-59
2021/12/06 05:38:32;;;;;;;;;;;24.30;45.10;;;;;;1562982;74;712;-59
2021/12/06 05:40:34;;;;;;;;;;;24.30;45.10;;;;;;1549724;74;700;-59
2021/12/06 05:42:36;;;;;;;;;;;24.40;45.00;;;;;;1556132;74;754;-59
2021/12/06 05:44:38;;;;;;;;;;;24.30;45.10;;;;;;1561489;74;700;-59
2021/12/06 05:46:40;;;;;;;;;;;24.30;45.00;;;;;;1553599;74;1119;-58
2021/12/06 05:48:42;;;;;;;;;;;24.30;45.10;;;;;;1571041;74;761;-59
2021/12/06 05:50:46;;;;;;;;;;;24.30;45.00;;;;;;1566322;74;706;-59
2021/12/06 05:52:49;;;;;;;;;;;24.40;45.00;;;;;;1563977;74;934;-59
2021/12/06 05:54:51;;;;;;;;;;;24.30;45.00;;;;;;1570046;74;762;-58
2021/12/06 05:56:53;;;;;;;;;;;24.30;45.00;;;;;;1573783;74;1128;-60
2021/12/06 05:58:55;;;;;;;;;;;24.30;45.10;;;;;;1559808;74;736;-58
2021/12/06 06:00:57;;;;;;;;;;;24.30;45.20;;;;;;1562170;74;722;-57
2021/12/06 06:02:59;;;;;;;;;;;24.40;45.20;;;;;;1566431;74;694;-59
2021/12/06 06:05:01;;;;;;;;;;;24.30;45.20;;;;;;1552337;74;1920;-59
2021/12/06 06:07:03;;;;;;;;;;;24.20;45.20;;;;;;1572586;74;1131;-59
2021/12/06 06:09:05;;;;;;;;;;;24.20;45.50;;;;;;1557897;74;783;-58
2021/12/06 06:11:07;;;;;;;;;;;24.30;45.60;;;;;;1581828;74;1093;-59
2021/12/06 06:13:09;;;;;;;;;;;24.30;45.40;;;;;;1561622;74;704;-59
2021/12/06 06:15:11;;;;;;;;;;;24.30;45.40;;;;;;1547356;74;711;-59
2021/12/06 06:17:15;;;;;;;;;;;24.20;45.30;;;;;;1576966;74;1130;-58
2021/12/06 06:19:17;;;;;;;;;;;24.30;45.50;;;;;;1559529;74;1014;-58
2021/12/06 06:21:20;;;;;;;;;;;24.30;45.50;;;;;;1556108;74;759;-59
2021/12/06 06:23:22;;;;;;;;;;;24.20;45.40;;;;;;1556548;74;697;-58
2021/12/06 06:25:24;;;;;;;;;;;24.20;45.40;;;;;;1566266;74;1978;-59
2021/12/06 06:27:26;;;;;;;;;;;24.20;45.40;;;;;;1566558;74;1132;-60
2021/12/06 06:29:28;;;;;;;;;;;24.10;45.50;;;;;;1563585;74;682;-59
2021/12/06 06:31:30;;;;;;;;;;;24.20;45.60;;;;;;1574115;74;725;-60
2021/12/06 06:33:32;;;;;;;;;;;24.20;45.40;;;;;;1561283;74;770;-59
2021/12/06 06:35:34;;;;;;;;;;;24.30;45.50;;;;;;1558697;74;711;-59
2021/12/06 06:37:35;;;;;;;;;;;24.20;45.40;;;;;;1557965;74;1110;-58
2021/12/06 06:39:37;;;;;;;;;;;24.20;45.40;;;;;;1566383;74;746;-59
2021/12/06 06:41:39;;;;;;;;;;;24.30;45.50;;;;;;1558656;74;717;-59
2021/12/06 06:43:41;;;;;;;;;;;24.20;45.40;;;;;;1554620;74;778;-59
2021/12/06 06:45:43;;;;;;;;;;;24.20;45.40;;;;;;1569400;74;1942;-59
2021/12/06 06:47:45;;;;;;;;;;;24.10;45.40;;;;;;1564787;74;1086;-59
2021/12/06 06:49:47;;;;;;;;;;;24.20;45.40;;;;;;1560088;74;736;-59
2021/12/06 06:51:49;;;;;;;;;;;24.10;45.30;;;;;;1576113;74;769;-60
2021/12/06 06:53:50;;;;;;;;;;;24.10;45.20;;;;;;1565597;74;691;-60
2021/12/06 06:55:52;;;;;;;;;;;24.00;45.10;;;;;;1568904;74;1055;-60
2021/12/06 06:57:54;;;;;;;;;;;24.10;45.20;;;;;;1565715;74;791;-60
2021/12/06 06:59:56;;;;;;;;;;;24.00;45.10;;;;;;1560902;74;707;-60
2021/12/06 07:01:58;;;;;;;;;;;24.10;45.20;;;;;;1569522;74;707;-60
2021/12/06 07:04:00;;;;;;;;;;;24.10;45.10;;;;;;1563180;74;749;-59
2021/12/06 07:06:02;;;;;;;;;;;24.00;45.00;;;;;;1566093;74;1940;-60
2021/12/06 07:08:04;;;;;;;;;;;24.00;45.00;;;;;;1564636;74;719;-60
2021/12/06 07:10:07;;;;;;;;;;;24.00;45.00;;;;;;1570130;74;695;-60
2021/12/06 07:12:13;;;;;;;;;;;24.00;45.00;;;;;;1563640;74;715;-59
2021/12/06 07:14:13;;;;;;;;;;;24.00;45.00;;;;;;1560300;74;1586;-60
2021/12/06 07:16:15;;;;;;;;;;;24.00;44.90;;;;;;1556928;74;1185;-60
2021/12/06 07:18:16;;;;;;;;;;;24.00;44.90;;;;;;1563554;74;707;-60
2021/12/06 07:20:18;;;;;;;;;;;24.00;44.90;;;;;;1570717;74;641;-60
2021/12/06 07:22:20;;;;;;;;;;;24.00;44.90;;;;;;1561960;74;711;-60
2021/12/06 07:24:22;;;;;;;;;;;24.00;44.90;;;;;;1560805;74;696;-60
2021/12/06 07:26:24;;;;;;;;;;;24.00;44.90;;;;;;1570049;74;1938;-60
2021/12/06 07:28:26;;;;;;;;;;;24.00;44.90;;;;;;1565510;74;739;-60
2021/12/06 07:30:28;;;;;;;;;;;24.10;45.00;;;;;;1557720;74;798;-60
2021/12/06 07:32:30;;;;;;;;;;;24.10;45.00;;;;;;1556103;74;714;-60
2021/12/06 07:34:32;;;;;;;;;;;24.10;45.10;;;;;;1562228;74;761;-60
2021/12/06 07:36:33;;;;;;;;;;;24.00;45.10;;;;;;1568746;74;1138;-60
2021/12/06 07:38:37;;;;;;;;;;;24.00;45.00;;;;;;1567123;74;677;-60
2021/12/06 07:40:39;;;;;;;;;;;24.00;45.00;;;;;;1567300;74;731;-60
2021/12/06 07:42:40;;;;;;;;;;;24.00;45.10;;;;;;1570456;74;777;-60
2021/12/06 07:44:44;;;;;;;;;;;24.00;45.10;;;;;;1569365;74;799;-60
2021/12/06 07:46:46;;;;;;;;;;;24.00;45.20;;;;;;1566293;74;1927;-60
2021/12/06 07:48:52;;;;;;;;;;;24.00;45.00;;;;;;1560462;74;771;-59
2021/12/06 07:50:52;;;;;;;;;;;24.00;45.10;;;;;;1555676;74;1638;-60
2021/12/06 07:52:54;;;;;;;;;;;24.00;45.20;;;;;;1551200;74;716;-60
2021/12/06 07:54:59;;;;;;;;;;;24.00;45.20;;;;;;1556927;74;700;-59
2021/12/06 07:56:59;;;;;;;;;;;24.00;45.20;;;;;;1557949;74;1443;-60
2021/12/06 07:59:01;;;;;;;;;;;24.00;45.20;;;;;;1552402;74;801;-60
2021/12/06 08:01:03;;;;;;;;;;;24.00;45.30;;;;;;1559009;74;718;-59
2021/12/06 08:03:07;;;;;;;;;;;24.00;45.30;;;;;;1567900;74;699;-59
2021/12/06 08:07:28;;;;;;;;;;;24.00;45.30;;;;;;1559248;74;1852;-60
2021/12/06 08:09:30;;;;;;;;;;;24.00;45.30;;;;;;1558692;74;775;-60
2021/12/06 08:11:32;;;;;;;;;;;24.10;45.50;;;;;;1559113;74;742;-60
2021/12/06 08:13:34;;;;;;;;;;;24.10;45.50;;;;;;1555435;74;738;-60
2021/12/06 08:15:36;;;;;;;;;;;24.00;45.30;;;;;;1560684;74;785;-60
2021/12/06 08:17:38;;;;;;;;;;;24.00;45.40;;;;;;1556296;74;1163;-60
2021/12/06 08:19:40;;;;;;;;;;;24.10;45.50;;;;;;1552596;74;687;-60
2021/12/06 08:21:42;;;;;;;;;;;24.20;45.30;;;;;;1564361;74;815;-60
2021/12/06 08:23:44;;;;;;;;;;;24.10;45.30;;;;;;1550964;74;727;-60
2021/12/06 08:25:47;;;;;;;;;;;24.20;45.20;;;;;;1555548;74;1935;-60
2021/12/06 08:27:49;;;;;;;;;;;24.10;45.20;;;;;;1550130;74;1098;-60
2021/12/06 08:29:51;;;;;;;;;;;24.20;45.20;;;;;;1549399;74;772;-60
2021/12/06 08:31:52;;;;;;;;;;;24.20;45.20;;;;;;1547784;74;709;-60
2021/12/06 08:33:54;;;;;;;;;;;24.20;45.20;;;;;;1556516;74;782;-60
2021/12/06 08:35:56;;;;;;;;;;;24.10;45.20;;;;;;1554851;74;1115;-60
2021/12/06 08:37:58;;;;;;;;;;;24.10;45.20;;;;;;1554717;74;819;-60
2021/12/06 08:40:00;;;;;;;;;;;24.20;45.20;;;;;;1555968;74;717;-59
2021/12/06 08:42:02;;;;;;;;;;;24.20;45.20;;;;;;1557929;74;713;-60
2021/12/06 08:44:04;;;;;;;;;;;24.10;45.20;;;;;;1557120;74;789;-59
2021/12/06 08:46:08;;;;;;;;;;;24.10;45.20;;;;;;1552496;74;1907;-60
2021/12/06 08:48:10;;;;;;;;;;;24.10;45.20;;;;;;1551923;74;726;-60
2021/12/06 08:50:15;;;;;;;;;;;24.20;45.20;;;;;;1550268;74;628;-60
2021/12/06 08:52:17;;;;;;;;;;;24.00;45.20;;;;;;1555106;74;891;-60
2021/12/06 08:54:19;;;;;;;;;;;24.10;45.20;;;;;;1554395;74;699;-60
2021/12/06 08:56:20;;;;;;;;;;;24.20;45.20;;;;;;1553917;74;1110;-60
2021/12/06 08:58:22;;;;;;;;;;;24.10;45.20;;;;;;1556486;74;707;-60
2021/12/06 09:00:25;;;;;;;;;;;24.20;45.20;;;;;;1550061;74;1042;-59
2021/12/06 09:02:27;;;;;;;;;;;24.20;45.20;;;;;;1550230;74;736;-59
2021/12/06 09:04:33;;;;;;;;;;;24.20;45.20;;;;;;1557654;74;698;-59
2021/12/06 09:06:33;;;;;;;;;;;24.10;45.20;;;;;;1552353;74;1925;-60
2021/12/06 09:08:35;;;;;;;;;;;24.10;45.20;;;;;;1555320;74;704;-60
2021/12/06 09:10:37;;;;;;;;;;;24.10;45.20;;;;;;1555063;74;1050;-59
2021/12/06 09:12:40;;;;;;;;;;;24.10;45.20;;;;;;1557482;74;660;-59
2021/12/06 09:14:42;;;;;;;;;;;24.20;45.20;;;;;;1560093;74;1081;-59
2021/12/06 09:16:43;;;;;;;;;;;24.10;45.20;;;;;;1554119;74;1155;-59
2021/12/06 09:18:45;;;;;;;;;;;24.10;45.20;;;;;;1558209;74;709;-60
2021/12/06 09:20:48;;;;;;;;;;;24.10;45.20;;;;;;1564538;74;781;-59
2021/12/06 09:22:49;;;;;;;;;;;24.00;45.10;;;;;;1551253;74;711;-59
2021/12/06 09:24:51;;;;;;;;;;;24.10;45.20;;;;;;1549755;74;806;-59
2021/12/06 09:26:53;;;;;;;;;;;24.10;45.20;;;;;;1559173;74;1940;-61
2021/12/06 09:28:55;;;;;;;;;;;24.00;45.10;;;;;;1547642;74;727;-60
2021/12/06 09:30:58;;;;;;;;;;;24.10;45.20;;;;;;1549499;74;826;-59
2021/12/06 09:33:00;;;;;;;;;;;24.10;45.20;;;;;;1557421;74;690;-60
2021/12/06 09:35:03;;;;;;;;;;;24.10;45.20;;;;;;1556545;74;729;-60
2021/12/06 09:37:05;;;;;;;;;;;24.00;45.10;;;;;;1552306;74;1139;-59
2021/12/06 09:39:07;;;;;;;;;;;24.00;45.10;;;;;;1556557;74;705;-59
2021/12/06 09:41:13;;;;;;;;;;;24.10;45.20;;;;;;1556692;74;700;-59
2021/12/06 09:43:15;;;;;;;;;;;24.10;45.20;;;;;;1551914;74;754;-59
2021/12/06 09:45:18;;;;;;;;;;;24.10;45.20;;;;;;1549032;74;721;-58
2021/12/06 09:47:20;;;;;;;;;;;24.10;45.20;;;;;;1556593;74;1952;-58
2021/12/06 09:49:22;;;;;;;;;;;24.00;45.00;;;;;;1549688;74;757;-59
2021/12/06 09:51:25;;;;;;;;;;;24.10;45.20;;;;;;1549403;74;728;-59
2021/12/06 09:53:28;;;;;;;;;;;24.00;45.00;;;;;;1564486;74;765;-59
2021/12/06 09:55:32;;;;;;;;;;;24.10;45.20;;;;;;1555788;74;779;-59
2021/12/06 09:57:33;;;;;;;;;;;24.00;45.10;;;;;;1553495;74;1189;-57
2021/12/06 09:59:37;;;;;;;;;;;24.00;45.00;;;;;;1559223;74;809;-59
2021/12/06 10:01:40;;;;;;;;;;;24.10;45.00;;;;;;1553137;74;704;-65
2021/12/06 10:03:46;;;;;;;;;;;24.10;45.10;;;;;;1554681;74;744;-59
2021/12/06 10:05:46;;;;;;;;;;;24.00;44.90;;;;;;1550383;74;1596;-58
2021/12/06 10:07:48;;;;;;;;;;;24.00;44.80;;;;;;1547961;74;1963;-58
2021/12/06 10:09:51;;;;;;;;;;;24.10;44.90;;;;;;1552074;74;725;-59
2021/12/06 10:11:54;;;;;;;;;;;24.00;44.80;;;;;;1553833;74;708;-58
2021/12/06 10:13:56;;;;;;;;;;;24.00;44.70;;;;;;1547991;74;708;-57
2021/12/06 10:15:57;;;;;;;;;;;24.00;44.60;;;;;;1557172;74;1080;-57
2021/12/06 10:18:00;;;;;;;;;;;24.00;44.60;;;;;;1561600;74;696;-58
2021/12/06 10:20:02;;;;;;;;;;;24.00;44.60;;;;;;1568320;74;661;-58
2021/12/06 10:22:05;;;;;;;;;;;24.00;44.70;;;;;;1563172;74;683;-63
2021/12/06 10:24:11;;;;;;;;;;;23.90;44.50;;;;;;1557936;74;719;-58
2021/12/06 10:26:14;;;;;;;;;;;23.90;44.10;;;;;;1569126;74;1877;-58
2021/12/06 10:28:16;;;;;;;;;;;23.90;43.90;;;;;;1558554;74;1923;-57
2021/12/06 10:30:18;;;;;;;;;;;23.90;43.60;;;;;;1568492;74;793;-61
2021/12/06 10:32:21;;;;;;;;;;;23.90;42.60;;;;;;1567558;74;716;-59
2021/12/06 10:34:25;;;;;;;;;;;23.90;42.60;;;;;;1567029;74;707;-57
2021/12/06 10:36:27;;;;;;;;;;;23.80;42.30;;;;;;1557216;74;1135;-58
2021/12/06 10:38:32;;;;;;;;;;;23.70;41.80;;;;;;1561921;74;637;-57
2021/12/06 10:40:35;;;;;;;;;;;23.70;41.80;;;;;;1564369;74;1487;-58
2021/12/06 10:42:38;;;;;;;;;;;23.70;41.30;;;;;;1556137;74;1732;-59
2021/12/06 10:44:42;;;;;;;;;;;23.70;41.20;;;;;;1563836;74;954;-59
2021/12/06 10:46:46;;;;;;;;;;;23.60;40.40;;;;;;1559920;74;1946;-58
2021/12/06 10:48:48;;;;;;;;;;;23.60;39.00;;;;;;1567482;74;996;-58
2021/12/06 10:50:54;;;;;;;;;;;23.50;39.00;;;;;;1565470;74;755;-59
2021/12/06 10:52:57;;;;;;;;;;;23.50;38.60;;;;;;1576276;74;709;-58
2021/12/06 10:54:59;;;;;;;;;;;23.50;38.70;;;;;;1578326;74;635;-57
2021/12/06 10:57:03;;;;;;;;;;;23.40;38.90;;;;;;1543874;76;1147;-57
2021/12/06 10:59:07;;;;;;;;;;;23.40;39.00;;;;;;1570845;74;1195;-58
2021/12/06 11:01:10;;;;;;;;;;;23.40;38.90;;;;;;1570863;74;1767;-57
2021/12/06 11:03:32;;;;;;;;;;;23.40;39.10;;;;;;1569873;74;1585;-57
2021/12/06 11:05:35;;;;;;;;;;;23.40;39.20;;;;;;1571058;74;711;-57
2021/12/06 11:07:37;;;;;;;;;;;23.30;39.10;;;;;;1564541;74;1934;-58
2021/12/06 11:09:40;;;;;;;;;;;23.30;39.20;;;;;;1565157;74;718;-58
2021/12/06 11:11:44;;;;;;;;;;;23.30;39.20;;;;;;1577067;74;652;-57
2021/12/06 11:13:49;;;;;;;;;;;23.30;39.30;;;;;;1570117;74;1635;-58
2021/12/06 11:15:52;;;;;;;;;;;23.30;39.30;;;;;;1570953;74;1130;-57
2021/12/06 11:18:01;;;;;;;;;;;23.30;39.40;;;;;;1570873;74;759;-60
2021/12/06 11:20:03;;;;;;;;;;;23.30;39.20;;;;;;1570348;74;672;-58
2021/12/06 11:22:05;;;;;;;;;;;23.30;39.20;;;;;;1568420;74;786;-58
2021/12/06 11:24:09;;;;;;;;;;;23.30;39.10;;;;;;1571014;74;788;-57
2021/12/06 11:26:11;;;;;;;;;;;23.30;39.20;;;;;;1556135;74;1578;-59
2021/12/06 11:28:32;;;;;;;;;;;23.30;39.20;;;;;;1570821;74;1942;-59
2021/12/06 11:30:34;;;;;;;;;;;23.20;39.20;;;;;;1571079;74;776;-57
2021/12/06 11:32:37;;;;;;;;;;;23.20;39.00;;;;;;1562426;74;950;-56
2021/12/06 11:34:46;;;;;;;;;;;23.20;39.10;;;;;;1561419;74;673;-58
2021/12/06 11:36:48;;;;;;;;;;;23.30;39.00;;;;;;1570772;74;1129;-66
2021/12/06 11:38:50;;;;;;;;;;;23.30;39.10;;;;;;1558333;74;668;-59
2021/12/06 11:40:53;;;;;;;;;;;23.30;39.10;;;;;;1548476;74;618;-59
2021/12/06 11:43:06;;;;;;;;;;;23.30;39.00;;;;;;1549969;74;1651;-59
2021/12/06 11:45:06;;;;;;;;;;;23.30;39.20;;;;;;1550181;74;1279;-59
2021/12/06 11:47:09;;;;;;;;;;;23.20;39.40;;;;;;1552909;74;1947;-59
2021/12/06 11:49:17;;;;;;;;;;;23.30;39.40;;;;;;1554623;74;1566;-58
2021/12/06 11:51:19;;;;;;;;;;;23.20;39.50;;;;;;1553139;74;735;-59
2021/12/06 11:53:28;;;;;;;;;;;23.20;39.60;;;;;;1545921;74;767;-59
2021/12/06 11:55:30;;;;;;;;;;;23.20;39.70;;;;;;1565777;74;636;-60
2021/12/06 11:57:33;;;;;;;;;;;23.20;39.70;;;;;;1553356;74;1167;-60
2021/12/06 11:59:35;;;;;;;;;;;23.20;39.80;;;;;;1566311;74;758;-60
2021/12/06 12:01:41;;;;;;;;;;;23.20;39.80;;;;;;1563413;74;736;-59
2021/12/06 12:03:44;;;;;;;;;;;23.20;39.70;;;;;;1570056;74;766;-60
2021/12/06 12:05:46;;;;;;;;;;;23.20;39.70;;;;;;1569681;74;1731;-59
2021/12/06 12:08:02;;;;;;;;;;;23.20;39.60;;;;;;1554854;74;1947;-60
2021/12/06 12:10:04;;;;;;;;;;;23.10;39.60;;;;;;1531186;76;1267;-58
2021/12/06 12:12:09;;;;;;;;;;;23.20;39.50;;;;;;1557183;74;811;-59
2021/12/06 12:14:11;;;;;;;;;;;23.10;39.40;;;;;;1552512;74;778;-60
2021/12/06 12:16:13;;;;;;;;;;;23.10;39.40;;;;;;1553940;74;1144;-59
2021/12/06 12:18:15;;;;;;;;;;;23.10;39.60;;;;;;1558291;74;733;-59
2021/12/06 12:20:17;;;;;;;;;;;23.10;39.50;;;;;;1560649;74;703;-59
2021/12/06 12:22:19;;;;;;;;;;;23.10;39.20;;;;;;1563612;74;771;-59
2021/12/06 12:24:21;;;;;;;;;;;23.10;39.20;;;;;;1558568;74;650;-59